createdAt,value
2023-05-14T00:00:12.627Z,17.08
2023-05-14T00:01:14.767Z,15.77
2023-05-14T00:02:17.130Z,12.23
2023-05-14T00:03:19.354Z,14.60
2023-05-14T00:04:23.663Z,16.05
2023-05-14T00:05:26.021Z,12.13
2023-05-14T00:06:28.284Z,16.67
2023-05-14T00:07:31.062Z,11.07
2023-05-14T00:08:34.805Z,12.30
2023-05-14T00:09:37.002Z,11.73
2023-05-14T00:10:39.165Z,14.07
2023-05-14T00:11:41.344Z,21.95
2023-05-14T00:12:43.490Z,31.73
2023-05-14T00:13:45.859Z,24.13
2023-05-14T00:14:48.126Z,21.13
2023-05-14T00:15:50.382Z,29.90
2023-05-14T00:16:52.545Z,20.27
2023-05-14T00:17:55.101Z,26.13
2023-05-14T00:18:57.370Z,29.77
2023-05-14T00:19:59.686Z,20.20
2023-05-14T00:21:01.872Z,23.05
2023-05-14T00:22:04.358Z,19.05
2023-05-14T00:23:06.620Z,16.02
2023-05-14T00:24:10.192Z,28.85
2023-05-14T00:25:12.421Z,19.10
2023-05-14T00:26:14.635Z,22.05
2023-05-14T00:27:16.785Z,18.13
2023-05-14T00:28:19.002Z,21.88
2023-05-14T00:29:21.158Z,20.80
2023-05-14T00:30:23.497Z,17.48
2023-05-14T00:31:25.855Z,21.77
2023-05-14T00:32:28.053Z,14.70
2023-05-14T00:33:30.240Z,12.23
2023-05-14T00:34:32.402Z,21.83
2023-05-14T00:35:35.912Z,12.55
2023-05-14T00:36:38.132Z,14.25
2023-05-14T00:37:40.398Z,14.23
2023-05-14T00:38:42.593Z,14.73
2023-05-14T00:39:46.207Z,14.75
2023-05-14T00:40:51.845Z,15.80
2023-05-14T00:41:54.117Z,13.57
2023-05-14T00:42:56.842Z,12.35
2023-05-14T00:43:59.195Z,15.40
2023-05-14T00:45:01.369Z,13.82
2023-05-14T00:46:03.980Z,17.00
2023-05-14T00:47:07.041Z,11.88
2023-05-14T00:48:09.518Z,19.70
2023-05-14T00:49:11.870Z,15.07
2023-05-14T00:50:16.189Z,19.73
2023-05-14T00:51:19.206Z,14.57
2023-05-14T00:52:22.175Z,13.75
2023-05-14T00:53:24.570Z,10.45
2023-05-14T00:54:28.242Z,9.68
2023-05-14T00:55:32.368Z,16.65
2023-05-14T00:56:35.538Z,12.52
2023-05-14T00:57:38.026Z,15.50
2023-05-14T00:58:40.195Z,11.60
2023-05-14T00:59:42.908Z,12.88
2023-05-14T01:00:45.197Z,11.68
2023-05-14T01:01:47.474Z,24.02
2023-05-14T01:02:49.710Z,14.00
2023-05-14T01:03:53.636Z,16.67
2023-05-14T01:04:56.162Z,11.93
2023-05-14T01:06:10.582Z,10.35
2023-05-14T01:07:20.459Z,10.40
2023-05-14T01:08:32.360Z,14.75
2023-05-14T01:09:42.952Z,15.43
2023-05-14T01:10:53.096Z,13.82
2023-05-14T01:12:01.171Z,11.77
2023-05-14T01:13:10.376Z,9.52
2023-05-14T01:14:21.714Z,19.58
2023-05-14T01:16:29.724Z,18.60
2023-05-14T01:17:34.007Z,15.60
2023-05-14T01:18:36.756Z,16.17
2023-05-14T01:19:41.653Z,21.05
2023-05-14T01:20:44.617Z,21.90
2023-05-14T01:21:48.208Z,14.68
2023-05-14T01:22:50.667Z,22.08
2023-05-14T01:23:52.822Z,20.45
2023-05-14T01:24:55.069Z,18.98
2023-05-14T01:25:57.249Z,19.70
2023-05-14T01:27:07.418Z,17.65
2023-05-14T01:28:13.310Z,18.20
2023-05-14T01:29:20.936Z,20.27
2023-05-14T01:30:29.168Z,16.65
2023-05-14T01:32:44.893Z,23.77
2023-05-14T01:33:49.105Z,20.75
2023-05-14T01:34:52.459Z,15.98
2023-05-14T01:35:55.837Z,26.85
2023-05-14T01:37:00.704Z,19.13
2023-05-14T01:38:07.364Z,17.20
2023-05-14T01:39:10.731Z,13.65
2023-05-14T01:40:14.119Z,18.05
2023-05-14T01:41:18.205Z,15.65
2023-05-14T01:42:20.793Z,16.90
2023-05-14T01:43:23.857Z,21.42
2023-05-14T01:44:26.355Z,18.83
2023-05-14T01:45:28.476Z,14.13
2023-05-14T01:46:31.814Z,17.20
2023-05-14T01:47:34.608Z,17.48
2023-05-14T01:48:37.903Z,15.25
2023-05-14T01:49:40.065Z,22.30
2023-05-14T01:50:42.724Z,15.73
2023-05-14T01:51:44.958Z,18.52
2023-05-14T01:52:48.810Z,15.70
2023-05-14T01:53:51.334Z,11.13
2023-05-14T01:54:54.003Z,16.98
2023-05-14T01:55:56.225Z,14.80
2023-05-14T01:56:58.467Z,10.50
2023-05-14T01:58:00.864Z,11.32
2023-05-14T01:59:03.022Z,12.88
2023-05-14T02:00:07.693Z,12.45
2023-05-14T02:01:10.000Z,14.73
2023-05-14T02:02:12.177Z,13.90
2023-05-14T02:03:14.383Z,12.55
2023-05-14T02:04:16.611Z,18.45
2023-05-14T02:05:19.340Z,20.30
2023-05-14T02:06:21.539Z,19.45
2023-05-14T02:07:23.752Z,18.05
2023-05-14T02:08:27.551Z,13.07
2023-05-14T02:09:30.707Z,14.52
2023-05-14T02:10:32.856Z,15.27
2023-05-14T02:11:35.056Z,13.55
2023-05-14T02:12:37.523Z,15.18
2023-05-14T02:13:39.795Z,12.80
2023-05-14T02:14:42.241Z,13.80
2023-05-14T02:15:44.452Z,12.88
2023-05-14T02:16:46.640Z,13.88
2023-05-14T02:17:48.891Z,13.75
2023-05-14T02:18:51.209Z,17.42
2023-05-14T02:19:53.656Z,12.88
2023-05-14T02:20:55.903Z,13.05
2023-05-14T02:21:59.319Z,14.95
2023-05-14T02:23:01.512Z,12.75
2023-05-14T02:24:05.571Z,18.85
2023-05-14T02:25:09.211Z,14.82
2023-05-14T02:26:12.385Z,15.32
2023-05-14T02:27:14.533Z,12.48
2023-05-14T02:28:16.882Z,16.95
2023-05-14T02:29:19.122Z,14.60
2023-05-14T02:30:22.792Z,13.43
2023-05-14T02:31:25.553Z,17.35
2023-05-14T02:32:28.046Z,11.90
2023-05-14T02:33:30.390Z,21.95
2023-05-14T02:34:34.514Z,15.60
2023-05-14T02:35:37.514Z,14.57
2023-05-14T02:36:40.101Z,15.43
2023-05-14T02:37:42.298Z,19.90
2023-05-14T02:38:44.520Z,19.48
2023-05-14T02:39:49.158Z,17.35
2023-05-14T02:40:51.407Z,18.27
2023-05-14T02:41:53.628Z,16.17
2023-05-14T02:42:55.873Z,16.85
2023-05-14T02:43:58.008Z,12.55
2023-05-14T02:45:00.252Z,16.70
2023-05-14T02:46:02.438Z,16.30
2023-05-14T02:47:06.244Z,13.48
2023-05-14T02:48:08.697Z,12.63
2023-05-14T02:49:11.025Z,18.77
2023-05-14T02:50:13.272Z,16.98
2023-05-14T02:51:16.937Z,13.88
2023-05-14T02:52:19.141Z,16.58
2023-05-14T02:53:21.363Z,12.32
2023-05-14T02:54:23.510Z,14.98
2023-05-14T02:55:27.261Z,15.10
2023-05-14T02:56:29.402Z,11.30
2023-05-14T02:57:31.564Z,13.18
2023-05-14T02:58:33.812Z,14.13
2023-05-14T02:59:36.292Z,14.00
2023-05-14T03:00:38.858Z,12.60
2023-05-14T03:01:41.648Z,14.07
2023-05-14T03:02:44.823Z,17.02
2023-05-14T03:03:47.518Z,13.00
2023-05-14T03:04:50.657Z,15.73
2023-05-14T03:05:52.966Z,11.50
2023-05-14T03:06:55.240Z,18.17
2023-05-14T03:07:57.396Z,14.45
2023-05-14T03:08:59.714Z,15.18
2023-05-14T03:10:02.030Z,14.68
2023-05-14T03:11:06.953Z,11.93
2023-05-14T03:12:09.307Z,12.05
2023-05-14T03:13:11.646Z,10.90
2023-05-14T03:14:13.974Z,10.65
2023-05-14T03:15:16.220Z,13.32
2023-05-14T03:16:18.529Z,13.90
2023-05-14T03:17:20.875Z,17.30
2023-05-14T03:18:23.189Z,17.98
2023-05-14T03:19:25.925Z,13.35
2023-05-14T03:20:28.280Z,13.00
2023-05-14T03:21:31.382Z,15.10
2023-05-14T03:22:33.712Z,17.33
2023-05-14T03:23:36.075Z,13.10
2023-05-14T03:24:40.285Z,13.90
2023-05-14T03:25:42.558Z,14.45
2023-05-14T03:26:46.253Z,16.40
2023-05-14T03:27:48.448Z,17.17
2023-05-14T03:28:50.900Z,15.70
2023-05-14T03:29:53.065Z,14.90
2023-05-14T03:30:55.398Z,21.65
2023-05-14T03:31:57.913Z,12.07
2023-05-14T03:33:00.299Z,14.27
2023-05-14T03:34:02.704Z,13.02
2023-05-14T03:35:05.906Z,13.10
2023-05-14T03:36:08.419Z,13.35
2023-05-14T03:37:11.046Z,13.88
2023-05-14T03:38:13.297Z,13.93
2023-05-14T03:39:19.664Z,12.05
2023-05-14T03:40:22.084Z,16.52
2023-05-14T03:41:24.413Z,12.98
2023-05-14T03:42:27.988Z,13.68
2023-05-14T03:43:30.471Z,13.65
2023-05-14T03:44:32.672Z,14.50
2023-05-14T03:46:38.181Z,15.02
2023-05-14T03:47:40.496Z,14.70
2023-05-14T03:48:42.911Z,11.98
2023-05-14T03:49:45.145Z,12.27
2023-05-14T03:50:47.824Z,15.10
2023-05-14T03:51:50.049Z,13.15
2023-05-14T03:52:52.649Z,13.02
2023-05-14T03:53:55.011Z,12.30
2023-05-14T03:54:57.178Z,12.45
2023-05-14T03:55:59.572Z,12.57
2023-05-14T03:57:02.061Z,13.43
2023-05-14T03:58:13.813Z,12.60
2023-05-14T03:59:15.998Z,14.25
2023-05-14T04:00:18.620Z,12.05
2023-05-14T04:01:20.815Z,17.25
2023-05-14T04:02:23.572Z,14.65
2023-05-14T04:03:26.025Z,9.95
2023-05-14T04:04:28.439Z,17.45
2023-05-14T04:05:30.712Z,12.65
2023-05-14T04:06:33.533Z,11.52
2023-05-14T04:07:35.798Z,14.25
2023-05-14T04:08:37.947Z,15.40
2023-05-14T04:09:40.104Z,16.63
2023-05-14T04:10:43.695Z,11.55
2023-05-14T04:11:46.339Z,11.52
2023-05-14T04:12:48.557Z,13.85
2023-05-14T04:13:52.231Z,13.88
2023-05-14T04:14:54.405Z,9.63
2023-05-14T04:15:56.598Z,9.60
2023-05-14T04:17:00.281Z,9.60
2023-05-14T04:18:02.715Z,11.75
2023-05-14T04:19:05.844Z,11.38
2023-05-14T04:20:10.506Z,9.52
2023-05-14T04:21:13.109Z,8.65
2023-05-14T04:22:15.401Z,11.25
2023-05-14T04:23:17.600Z,8.98
2023-05-14T04:24:19.706Z,11.35
2023-05-14T04:25:22.068Z,8.02
2023-05-14T04:26:24.323Z,9.65
2023-05-14T04:27:27.338Z,7.85
2023-05-14T04:28:29.510Z,11.80
2023-05-14T04:29:33.199Z,9.82
2023-05-14T04:30:35.665Z,12.48
2023-05-14T04:31:38.006Z,8.50
2023-05-14T04:32:40.910Z,9.85
2023-05-14T04:33:43.137Z,6.82
2023-05-14T04:34:46.892Z,10.35
2023-05-14T04:35:49.133Z,7.45
2023-05-14T04:36:52.165Z,12.68
2023-05-14T04:37:54.412Z,10.10
2023-05-14T04:38:57.011Z,8.75
2023-05-14T04:39:59.223Z,6.38
2023-05-14T04:41:01.393Z,9.38
2023-05-14T04:42:03.902Z,6.18
2023-05-14T04:43:06.270Z,6.55
2023-05-14T04:44:09.123Z,5.97
2023-05-14T04:45:14.147Z,6.65
2023-05-14T04:46:16.408Z,8.80
2023-05-14T04:47:18.756Z,11.32
2023-05-14T04:48:21.058Z,11.93
2023-05-14T04:49:23.247Z,6.97
2023-05-14T04:50:25.933Z,9.35
2023-05-14T04:51:28.645Z,9.30
2023-05-14T04:52:30.813Z,6.82
2023-05-14T04:53:33.287Z,7.07
2023-05-14T04:54:35.475Z,9.40
2023-05-14T04:55:37.912Z,5.70
2023-05-14T04:56:40.153Z,6.68
2023-05-14T04:57:42.672Z,9.38
2023-05-14T04:58:45.116Z,9.80
2023-05-14T04:59:47.405Z,4.10
2023-05-14T05:00:51.034Z,6.93
2023-05-14T05:01:53.224Z,6.82
2023-05-14T05:02:55.732Z,10.18
2023-05-14T05:03:58.271Z,6.68
2023-05-14T05:05:00.727Z,8.65
2023-05-14T05:06:02.934Z,6.60
2023-05-14T05:07:06.394Z,4.65
2023-05-14T05:08:08.662Z,8.50
2023-05-14T05:09:10.935Z,9.00
2023-05-14T05:10:13.864Z,7.10
2023-05-14T05:11:16.322Z,8.77
2023-05-14T05:12:18.472Z,4.35
2023-05-14T05:13:20.617Z,10.18
2023-05-14T05:14:22.828Z,4.43
2023-05-14T05:15:26.587Z,8.38
2023-05-14T05:16:30.648Z,5.25
2023-05-14T05:17:32.865Z,7.45
2023-05-14T05:18:35.144Z,7.55
2023-05-14T05:19:43.753Z,5.63
2023-05-14T05:20:46.592Z,5.10
2023-05-14T05:21:48.860Z,7.05
2023-05-14T05:22:51.039Z,7.93
2023-05-14T05:23:53.402Z,4.50
2023-05-14T05:24:55.562Z,5.80
2023-05-14T05:25:57.728Z,7.40
2023-05-14T05:26:59.948Z,7.00
2023-05-14T05:28:02.204Z,7.68
2023-05-14T05:29:04.792Z,5.32
2023-05-14T05:30:08.431Z,5.82
2023-05-14T05:31:10.829Z,3.97
2023-05-14T05:32:14.496Z,7.07
2023-05-14T05:33:16.754Z,6.40
2023-05-14T05:34:20.189Z,7.72
2023-05-14T05:35:22.420Z,7.15
2023-05-14T05:36:24.684Z,6.20
2023-05-14T05:37:26.920Z,7.05
2023-05-14T05:38:29.110Z,7.03
2023-05-14T05:39:34.924Z,6.93
2023-05-14T05:40:37.431Z,7.13
2023-05-14T05:41:39.675Z,5.55
2023-05-14T05:42:41.985Z,9.80
2023-05-14T05:43:44.205Z,6.45
2023-05-14T05:44:46.406Z,5.60
2023-05-14T05:45:48.612Z,5.95
2023-05-14T05:46:51.245Z,4.38
2023-05-14T05:47:54.960Z,4.28
2023-05-14T05:48:57.215Z,7.25
2023-05-14T05:49:59.553Z,7.53
2023-05-14T05:51:01.832Z,8.10
2023-05-14T05:52:04.383Z,4.82
2023-05-14T05:53:06.572Z,5.93
2023-05-14T05:54:08.983Z,8.38
2023-05-14T05:55:11.215Z,4.00
2023-05-14T05:56:13.383Z,5.18
2023-05-14T05:57:15.760Z,4.95
2023-05-14T05:58:18.226Z,4.07
2023-05-14T05:59:20.563Z,5.00
2023-05-14T06:00:25.870Z,5.18
2023-05-14T06:01:28.562Z,5.85
2023-05-14T06:02:30.967Z,5.70
2023-05-14T06:03:34.581Z,4.82
2023-05-14T06:04:36.753Z,7.43
2023-05-14T06:05:38.974Z,4.97
2023-05-14T06:06:41.264Z,9.48
2023-05-14T06:07:43.496Z,5.50
2023-05-14T06:08:45.650Z,5.82
2023-05-14T06:09:47.824Z,6.75
2023-05-14T06:10:50.053Z,6.60
2023-05-14T06:11:52.268Z,7.03
2023-05-14T06:12:54.688Z,4.80
2023-05-14T06:13:56.942Z,5.72
2023-05-14T06:14:59.185Z,4.60
2023-05-14T06:16:01.449Z,7.10
2023-05-14T06:17:03.756Z,6.95
2023-05-14T06:18:06.440Z,7.43
2023-05-14T06:19:10.264Z,7.55
2023-05-14T06:20:13.132Z,6.85
2023-05-14T06:21:15.314Z,7.45
2023-05-14T06:22:17.553Z,4.93
2023-05-14T06:23:19.732Z,6.13
2023-05-14T06:24:21.849Z,6.55
2023-05-14T06:25:24.095Z,5.63
2023-05-14T06:26:27.074Z,5.32
2023-05-14T06:27:30.365Z,3.22
2023-05-14T06:28:32.518Z,5.45
2023-05-14T06:29:34.778Z,3.75
2023-05-14T06:30:37.133Z,7.10
2023-05-14T06:31:39.380Z,8.82
2023-05-14T06:32:41.689Z,14.48
2023-05-14T06:33:43.980Z,9.15
2023-05-14T06:34:47.704Z,6.05
2023-05-14T06:35:51.259Z,3.92
2023-05-14T06:36:53.541Z,14.10
2023-05-14T06:37:55.735Z,6.90
2023-05-14T06:38:57.991Z,5.03
2023-05-14T06:40:00.609Z,5.60
2023-05-14T06:41:02.775Z,7.75
2023-05-14T06:42:05.421Z,9.10
2023-05-14T06:43:07.552Z,5.47
2023-05-14T06:44:09.732Z,5.65
2023-05-14T06:45:12.275Z,5.07
2023-05-14T06:46:14.414Z,7.10
2023-05-14T06:47:16.608Z,8.07
2023-05-14T06:48:19.646Z,4.18
2023-05-14T06:49:21.911Z,9.40
2023-05-14T06:50:25.763Z,4.78
2023-05-14T06:51:28.095Z,4.65
2023-05-14T06:52:30.218Z,8.10
2023-05-14T06:53:32.410Z,8.55
2023-05-14T06:54:34.578Z,6.82
2023-05-14T06:55:36.845Z,7.88
2023-05-14T06:56:39.044Z,9.77
2023-05-14T06:57:41.195Z,9.70
2023-05-14T06:58:43.352Z,3.10
2023-05-14T06:59:45.545Z,6.22
2023-05-14T07:00:48.418Z,4.72
2023-05-14T07:01:50.683Z,5.80
2023-05-14T07:02:52.908Z,6.53
2023-05-14T07:03:55.467Z,6.20
2023-05-14T07:04:57.622Z,5.72
2023-05-14T07:06:01.188Z,5.97
2023-05-14T07:07:03.623Z,5.93
2023-05-14T07:08:06.017Z,5.35
2023-05-14T07:09:08.146Z,6.60
2023-05-14T07:10:10.993Z,4.65
2023-05-14T07:11:13.860Z,6.60
2023-05-14T07:12:15.991Z,3.90
2023-05-14T07:13:18.240Z,4.70
2023-05-14T07:14:20.668Z,12.68
2023-05-14T07:15:22.793Z,4.38
2023-05-14T07:16:25.168Z,6.75
2023-05-14T07:17:27.731Z,4.68
2023-05-14T07:18:30.148Z,7.97
2023-05-14T07:19:32.400Z,6.68
2023-05-14T07:20:34.594Z,4.55
2023-05-14T07:21:38.074Z,8.93
2023-05-14T07:22:40.333Z,11.32
2023-05-14T07:23:42.671Z,5.18
2023-05-14T07:24:44.814Z,5.78
2023-05-14T07:25:46.948Z,6.82
2023-05-14T07:26:49.229Z,4.90
2023-05-14T07:27:51.376Z,5.43
2023-05-14T07:28:54.799Z,9.38
2023-05-14T07:29:57.049Z,14.32
2023-05-14T07:30:59.609Z,11.52
2023-05-14T07:32:04.671Z,9.25
2023-05-14T07:33:07.035Z,4.32
2023-05-14T07:34:11.024Z,7.22
2023-05-14T07:35:13.315Z,6.22
2023-05-14T07:36:15.654Z,7.95
2023-05-14T07:37:19.806Z,8.20
2023-05-14T07:38:22.834Z,6.82
2023-05-14T07:39:25.074Z,6.47
2023-05-14T07:40:27.590Z,6.20
2023-05-14T07:41:29.936Z,14.15
2023-05-14T07:42:36.554Z,5.45
2023-05-14T07:43:40.575Z,7.20
2023-05-14T07:44:42.860Z,9.93
2023-05-14T07:45:45.650Z,6.85
2023-05-14T07:46:47.811Z,4.45
2023-05-14T07:47:53.080Z,7.55
2023-05-14T07:48:55.947Z,7.50
2023-05-14T07:49:58.281Z,10.05
2023-05-14T07:51:00.780Z,4.78
2023-05-14T07:52:03.372Z,7.65
2023-05-14T07:53:06.942Z,5.70
2023-05-14T07:54:09.144Z,9.70
2023-05-14T07:55:12.296Z,7.85
2023-05-14T07:56:14.983Z,7.53
2023-05-14T07:57:17.229Z,4.00
2023-05-14T07:58:19.413Z,5.65
2023-05-14T07:59:22.143Z,4.90
2023-05-14T08:00:24.508Z,5.82
2023-05-14T08:01:27.079Z,10.48
2023-05-14T08:02:29.673Z,4.32
2023-05-14T08:03:32.057Z,5.32
2023-05-14T08:04:36.165Z,8.60
2023-05-14T08:05:38.677Z,4.63
2023-05-14T08:06:40.859Z,4.63
2023-05-14T08:07:43.481Z,6.63
2023-05-14T08:08:47.167Z,5.90
2023-05-14T08:09:49.374Z,6.30
2023-05-14T08:10:51.712Z,4.65
2023-05-14T08:11:54.023Z,6.82
2023-05-14T08:12:56.249Z,7.85
2023-05-14T08:13:58.432Z,3.10
2023-05-14T08:15:00.637Z,3.88
2023-05-14T08:16:02.922Z,4.70
2023-05-14T08:17:05.548Z,7.95
2023-05-14T08:18:10.217Z,5.85
2023-05-14T08:19:13.248Z,3.90
2023-05-14T08:20:15.883Z,7.47
2023-05-14T08:21:18.019Z,7.82
2023-05-14T08:22:20.733Z,5.93
2023-05-14T08:23:23.366Z,7.00
2023-05-14T08:24:26.983Z,8.85
2023-05-14T08:25:30.183Z,4.25
2023-05-14T08:26:32.549Z,2.55
2023-05-14T08:27:34.767Z,6.40
2023-05-14T08:28:36.961Z,6.63
2023-05-14T08:29:39.215Z,9.10
2023-05-14T08:30:43.457Z,9.15
2023-05-14T08:31:45.690Z,9.52
2023-05-14T08:32:48.320Z,4.85
2023-05-14T08:33:50.757Z,4.60
2023-05-14T08:34:53.038Z,6.47
2023-05-14T08:35:56.285Z,5.57
2023-05-14T08:36:59.594Z,4.53
2023-05-14T08:38:01.736Z,4.70
2023-05-14T08:39:03.989Z,6.30
2023-05-14T08:40:09.482Z,5.28
2023-05-14T08:41:15.075Z,6.00
2023-05-14T08:42:21.101Z,11.00
2023-05-14T08:43:27.263Z,4.13
2023-05-14T08:44:36.442Z,10.38
2023-05-14T08:45:40.525Z,7.63
2023-05-14T08:46:42.826Z,6.43
2023-05-14T08:47:49.712Z,5.68
2023-05-14T08:48:58.509Z,6.90
2023-05-14T08:50:05.771Z,8.20
2023-05-14T08:51:09.106Z,9.00
2023-05-14T08:52:11.699Z,5.60
2023-05-14T08:53:14.208Z,6.00
2023-05-14T08:54:17.859Z,7.32
2023-05-14T08:55:22.572Z,7.88
2023-05-14T08:56:25.982Z,8.70
2023-05-14T08:57:30.229Z,5.38
2023-05-14T08:58:32.372Z,5.70
2023-05-14T08:59:34.561Z,4.40
2023-05-14T09:00:36.864Z,4.05
2023-05-14T09:01:42.700Z,4.43
2023-05-14T09:02:46.694Z,6.95
2023-05-14T09:03:50.385Z,6.57
2023-05-14T09:04:55.934Z,4.55
2023-05-14T09:06:00.246Z,6.57
2023-05-14T09:07:02.956Z,6.80
2023-05-14T09:08:05.504Z,8.88
2023-05-14T09:09:07.824Z,4.97
2023-05-14T09:10:10.490Z,6.45
2023-05-14T09:11:14.234Z,10.93
2023-05-14T09:12:16.817Z,4.30
2023-05-14T09:13:19.024Z,5.40
2023-05-14T09:14:22.506Z,5.28
2023-05-14T09:15:27.827Z,5.57
2023-05-14T09:16:31.023Z,3.92
2023-05-14T09:17:33.811Z,7.80
2023-05-14T09:18:36.933Z,6.10
2023-05-14T09:19:40.487Z,6.15
2023-05-14T09:20:43.034Z,6.55
2023-05-14T09:21:46.208Z,6.63
2023-05-14T09:22:48.482Z,7.70
2023-05-14T09:23:55.562Z,6.22
2023-05-14T09:25:05.721Z,4.05
2023-05-14T09:26:08.154Z,3.07
2023-05-14T09:27:19.601Z,4.85
2023-05-14T09:28:24.504Z,7.65
2023-05-14T09:29:27.468Z,6.57
2023-05-14T09:30:30.111Z,8.85
2023-05-14T09:31:33.917Z,8.40
2023-05-14T09:32:37.353Z,3.70
2023-05-14T09:33:39.676Z,4.00
2023-05-14T09:34:42.420Z,4.80
2023-05-14T09:35:44.682Z,6.53
2023-05-14T09:36:47.354Z,6.75
2023-05-14T09:37:51.101Z,7.40
2023-05-14T09:38:53.401Z,6.13
2023-05-14T09:39:55.610Z,5.25
2023-05-14T09:40:58.011Z,7.13
2023-05-14T09:42:01.230Z,9.45
2023-05-14T09:43:05.047Z,8.32
2023-05-14T09:44:07.377Z,7.45
2023-05-14T09:45:10.722Z,5.18
2023-05-14T09:46:12.842Z,6.22
2023-05-14T09:47:16.068Z,8.15
2023-05-14T09:48:18.484Z,4.97
2023-05-14T09:49:21.150Z,5.18
2023-05-14T09:50:23.508Z,5.78
2023-05-14T09:51:28.802Z,5.82
2023-05-14T09:52:31.161Z,5.28
2023-05-14T09:53:34.473Z,11.73
2023-05-14T09:54:38.124Z,7.03
2023-05-14T09:55:40.770Z,5.03
2023-05-14T09:56:44.003Z,5.63
2023-05-14T09:57:46.282Z,7.18
2023-05-14T09:58:50.005Z,6.45
2023-05-14T09:59:52.293Z,4.90
2023-05-14T10:00:56.918Z,6.05
2023-05-14T10:01:59.719Z,5.47
2023-05-14T10:03:06.166Z,5.45
2023-05-14T10:04:09.667Z,6.32
2023-05-14T10:05:13.425Z,4.55
2023-05-14T10:06:19.232Z,10.55
2023-05-14T10:07:26.242Z,4.78
2023-05-14T10:08:33.751Z,5.90
2023-05-14T10:09:38.478Z,5.20
2023-05-14T10:10:40.873Z,10.48
2023-05-14T10:11:45.399Z,6.22
2023-05-14T10:12:52.506Z,2.85
2023-05-14T10:14:02.640Z,6.90
2023-05-14T10:15:12.949Z,5.53
2023-05-14T10:16:22.000Z,7.22
2023-05-14T10:17:27.145Z,4.40
2023-05-14T10:18:33.077Z,4.68
2023-05-14T10:19:36.918Z,4.43
2023-05-14T10:20:41.560Z,2.72
2023-05-14T10:21:48.709Z,9.05
2023-05-14T10:22:51.308Z,5.13
2023-05-14T10:23:53.479Z,4.40
2023-05-14T10:24:56.478Z,5.35
2023-05-14T10:25:59.650Z,6.78
2023-05-14T10:27:02.166Z,5.90
2023-05-14T10:28:06.076Z,4.07
2023-05-14T10:29:10.344Z,9.35
2023-05-14T10:30:13.130Z,3.75
2023-05-14T10:31:15.813Z,4.78
2023-05-14T10:32:21.000Z,11.75
2023-05-14T10:33:23.145Z,5.97
2023-05-14T10:34:33.422Z,10.07
2023-05-14T10:35:58.236Z,5.72
2023-05-14T10:37:01.821Z,8.38
2023-05-14T10:38:08.511Z,3.15
2023-05-14T10:39:10.672Z,5.20
2023-05-14T10:40:14.024Z,3.95
2023-05-14T10:41:18.097Z,2.78
2023-05-14T10:42:22.686Z,4.32
2023-05-14T10:43:28.318Z,11.85
2023-05-14T10:44:35.147Z,3.80
2023-05-14T10:45:37.378Z,3.53
2023-05-14T10:46:40.158Z,5.22
2023-05-14T10:47:44.431Z,6.05
2023-05-14T10:48:46.783Z,5.95
2023-05-14T10:49:49.563Z,5.38
2023-05-14T10:50:52.676Z,7.15
2023-05-14T10:51:54.961Z,5.32
2023-05-14T10:52:57.648Z,7.57
2023-05-14T10:54:01.789Z,4.40
2023-05-14T10:55:08.700Z,6.85
2023-05-14T10:56:12.887Z,7.15
2023-05-14T10:57:15.032Z,3.60
2023-05-14T10:58:18.050Z,5.45
2023-05-14T10:59:20.231Z,6.88
2023-05-14T11:00:27.812Z,4.60
2023-05-14T11:01:29.939Z,5.18
2023-05-14T11:02:34.725Z,5.25
2023-05-14T11:03:42.079Z,8.55
2023-05-14T11:04:55.680Z,7.32
2023-05-14T11:05:58.011Z,4.10
2023-05-14T11:07:01.390Z,5.55
2023-05-14T11:08:08.033Z,6.13
2023-05-14T11:09:10.802Z,6.97
2023-05-14T11:10:14.738Z,8.30
2023-05-14T11:11:19.258Z,5.50
2023-05-14T11:12:21.806Z,3.13
2023-05-14T11:13:26.127Z,6.53
2023-05-14T11:14:28.715Z,4.75
2023-05-14T11:15:32.517Z,5.97
2023-05-14T11:16:34.917Z,4.38
2023-05-14T11:17:38.568Z,5.78
2023-05-14T11:18:42.041Z,3.92
2023-05-14T11:19:45.911Z,6.18
2023-05-14T11:20:48.240Z,6.85
2023-05-14T11:21:51.020Z,5.60
2023-05-14T11:22:53.245Z,5.47
2023-05-14T11:23:55.636Z,6.43
2023-05-14T11:24:57.872Z,4.15
2023-05-14T11:26:00.042Z,30.35
2023-05-14T11:27:02.266Z,3.35
2023-05-14T11:28:05.121Z,5.97
2023-05-14T11:29:07.315Z,4.32
2023-05-14T11:30:14.373Z,4.55
2023-05-14T11:31:18.175Z,5.93
2023-05-14T11:32:20.664Z,3.45
2023-05-14T11:33:22.825Z,5.32
2023-05-14T11:34:25.274Z,6.28
2023-05-14T11:35:27.783Z,5.07
2023-05-14T11:36:29.934Z,6.40
2023-05-14T11:37:32.032Z,4.78
2023-05-14T11:38:34.172Z,2.65
2023-05-14T11:39:37.696Z,6.28
2023-05-14T11:40:39.853Z,5.97
2023-05-14T11:41:44.803Z,3.17
2023-05-14T11:42:47.047Z,1.88
2023-05-14T11:43:49.455Z,2.25
2023-05-14T11:44:52.618Z,2.75
2023-05-14T11:45:55.705Z,3.90
2023-05-14T11:47:01.413Z,6.03
2023-05-14T11:48:11.918Z,4.22
2023-05-14T11:49:14.246Z,4.57
2023-05-14T11:50:17.275Z,5.03
2023-05-14T11:51:21.431Z,6.50
2023-05-14T11:52:23.774Z,8.18
2023-05-14T11:53:27.585Z,5.82
2023-05-14T11:54:31.951Z,6.00
2023-05-14T11:55:35.285Z,5.65
2023-05-14T11:56:37.469Z,5.55
2023-05-14T11:57:39.862Z,6.07
2023-05-14T11:58:47.530Z,4.43
2023-05-14T11:59:55.026Z,3.78
2023-05-14T12:00:57.301Z,9.60
2023-05-14T12:02:03.697Z,9.88
2023-05-14T12:03:06.681Z,5.65
2023-05-14T12:04:09.636Z,8.25
2023-05-14T12:05:13.646Z,6.90
2023-05-14T12:06:15.942Z,6.20
2023-05-14T12:07:18.455Z,7.53
2023-05-14T12:08:21.460Z,4.20
2023-05-14T12:09:24.064Z,3.58
2023-05-14T12:10:26.442Z,7.00
2023-05-14T12:11:31.911Z,10.65
2023-05-14T12:12:36.590Z,4.43
2023-05-14T12:13:40.704Z,3.88
2023-05-14T12:14:43.666Z,3.65
2023-05-14T12:15:47.139Z,4.40
2023-05-14T12:16:50.459Z,6.43
2023-05-14T12:17:54.127Z,5.32
2023-05-14T12:19:00.997Z,12.32
2023-05-14T12:20:04.302Z,4.03
2023-05-14T12:21:09.788Z,4.45
2023-05-14T12:22:14.298Z,3.42
2023-05-14T12:23:16.616Z,5.68
2023-05-14T12:24:22.312Z,3.30
2023-05-14T12:25:26.096Z,8.50
2023-05-14T12:26:28.822Z,4.05
2023-05-14T12:27:31.134Z,5.43
2023-05-14T12:28:36.061Z,4.93
2023-05-14T12:29:40.100Z,6.00
2023-05-14T12:30:42.241Z,5.43
2023-05-14T12:31:48.190Z,5.95
2023-05-14T12:32:53.114Z,5.38
2023-05-14T12:33:57.330Z,3.90
2023-05-14T12:34:59.526Z,5.45
2023-05-14T12:36:17.571Z,4.75
2023-05-14T12:37:23.098Z,4.97
2023-05-14T12:38:25.579Z,6.15
2023-05-14T12:39:27.933Z,7.72
2023-05-14T12:40:30.662Z,4.22
2023-05-14T12:41:34.156Z,8.57
2023-05-14T12:42:36.562Z,3.92
2023-05-14T12:43:39.850Z,2.72
2023-05-14T12:44:42.023Z,2.17
2023-05-14T12:45:44.296Z,4.45
2023-05-14T12:46:46.542Z,2.40
2023-05-14T12:47:48.802Z,2.67
2023-05-14T12:48:53.144Z,3.22
2023-05-14T12:49:57.255Z,4.47
2023-05-14T12:50:59.412Z,3.35
2023-05-14T12:52:19.432Z,8.80
2023-05-14T12:53:23.616Z,4.63
2023-05-14T12:54:25.858Z,6.57
2023-05-14T12:55:28.098Z,4.47
2023-05-14T12:56:32.088Z,6.95
2023-05-14T12:57:35.587Z,5.90
2023-05-14T12:58:38.177Z,2.35
2023-05-14T12:59:41.179Z,9.63
2023-05-14T13:00:43.377Z,9.95
2023-05-14T13:01:45.761Z,9.35
2023-05-14T13:02:48.570Z,6.28
2023-05-14T13:03:51.306Z,4.20
2023-05-14T13:04:53.477Z,4.15
2023-05-14T13:05:57.352Z,2.88
2023-05-14T13:06:59.715Z,3.55
2023-05-14T13:08:03.966Z,5.13
2023-05-14T13:09:06.590Z,3.05
2023-05-14T13:10:09.986Z,5.82
2023-05-14T13:11:13.397Z,6.97
2023-05-14T13:12:15.669Z,9.70
2023-05-14T13:13:17.749Z,8.80
2023-05-14T13:14:20.370Z,5.57
2023-05-14T13:15:23.091Z,4.65
2023-05-14T13:16:25.875Z,3.78
2023-05-14T13:17:28.227Z,3.97
2023-05-14T13:18:30.554Z,6.32
2023-05-14T13:19:33.233Z,4.60
2023-05-14T13:20:35.425Z,5.05
2023-05-14T13:21:39.077Z,14.75
2023-05-14T13:22:43.128Z,4.22
2023-05-14T13:23:45.633Z,6.18
2023-05-14T13:24:47.900Z,7.47
2023-05-14T13:25:50.186Z,6.50
2023-05-14T13:26:52.369Z,3.45
2023-05-14T13:27:55.057Z,5.28
2023-05-14T13:28:57.152Z,3.85
2023-05-14T13:29:59.642Z,4.45
2023-05-14T13:31:07.405Z,5.85
2023-05-14T13:32:09.639Z,4.95
2023-05-14T13:33:11.990Z,5.63
2023-05-14T13:34:14.797Z,3.33
2023-05-14T13:35:17.600Z,3.20
2023-05-14T13:36:20.007Z,4.13
2023-05-14T13:37:24.041Z,7.68
2023-05-14T13:38:26.222Z,5.18
2023-05-14T13:39:28.956Z,7.57
2023-05-14T13:40:31.321Z,6.88
2023-05-14T13:41:37.803Z,6.85
2023-05-14T13:42:39.995Z,4.30
2023-05-14T13:43:42.089Z,9.95
2023-05-14T13:44:44.749Z,3.47
2023-05-14T13:45:47.154Z,5.07
2023-05-14T13:46:49.496Z,3.92
2023-05-14T13:47:51.914Z,4.43
2023-05-14T13:48:54.094Z,6.05
2023-05-14T13:49:59.693Z,6.35
2023-05-14T13:51:01.875Z,5.43
2023-05-14T13:52:04.621Z,7.53
2023-05-14T13:53:08.171Z,4.90
2023-05-14T13:54:10.358Z,5.43
2023-05-14T13:55:13.590Z,7.43